sensor_id;sensor_type;location;lat;lon;timestamp;pressure;altitude;pressure_sealevel;temperature
70831;BMP180;58451;51.550;7.208;2023-02-28T00:00:06;102237.40;;;-2.30
70831;BMP180;58451;51.550;7.208;2023-02-28T00:01:45;102237.00;;;-2.30
70831;BMP180;58451;51.550;7.208;2023-02-28T00:03:17;102245.20;;;-2.30
70831;BMP180;58451;51.550;7.208;2023-02-28T00:04:49;102243.20;;;-2.30
70831;BMP180;58451;51.550;7.208;2023-02-28T00:06:24;102238.00;;;-2.34
70831;BMP180;58451;51.550;7.208;2023-02-28T00:07:56;102246.00;;;-2.40
70831;BMP180;58451;51.550;7.208;2023-02-28T00:09:28;102247.40;;;-2.40
70831;BMP180;58451;51.550;7.208;2023-02-28T00:11:12;102248.60;;;-2.40
70831;BMP180;58451;51.550;7.208;2023-02-28T00:12:45;102243.60;;;-2.42
70831;BMP180;58451;51.550;7.208;2023-02-28T00:14:16;102243.60;;;-2.48
70831;BMP180;58451;51.550;7.208;2023-02-28T00:16:02;102249.20;;;-2.50
70831;BMP180;58451;51.550;7.208;2023-02-28T00:17:36;102253.00;;;-2.50
70831;BMP180;58451;51.550;7.208;2023-02-28T00:19:07;102247.40;;;-2.50
70831;BMP180;58451;51.550;7.208;2023-02-28T00:20:39;102249.00;;;-2.50
70831;BMP180;58451;51.550;7.208;2023-02-28T00:22:11;102245.60;;;-2.50
70831;BMP180;58451;51.550;7.208;2023-02-28T00:23:43;102247.20;;;-2.50
70831;BMP180;58451;51.550;7.208;2023-02-28T00:25:19;102248.20;;;-2.50
70831;BMP180;58451;51.550;7.208;2023-02-28T00:26:51;102246.40;;;-2.50
70831;BMP180;58451;51.550;7.208;2023-02-28T00:28:24;102246.80;;;-2.50
70831;BMP180;58451;51.550;7.208;2023-02-28T00:29:56;102247.60;;;-2.50
70831;BMP180;58451;51.550;7.208;2023-02-28T00:31:28;102244.40;;;-2.50
70831;BMP180;58451;51.550;7.208;2023-02-28T00:33:00;102246.60;;;-2.50
70831;BMP180;58451;51.550;7.208;2023-02-28T00:34:32;102246.40;;;-2.50
70831;BMP180;58451;51.550;7.208;2023-02-28T00:36:11;102245.40;;;-2.52
70831;BMP180;58451;51.550;7.208;2023-02-28T00:37:46;102249.20;;;-2.58
70831;BMP180;58451;51.550;7.208;2023-02-28T00:39:19;102249.80;;;-2.60
70831;BMP180;58451;51.550;7.208;2023-02-28T00:40:52;102246.00;;;-2.60
70831;BMP180;58451;51.550;7.208;2023-02-28T00:42:25;102247.80;;;-2.60
70831;BMP180;58451;51.550;7.208;2023-02-28T00:43:57;102247.80;;;-2.60
70831;BMP180;58451;51.550;7.208;2023-02-28T00:45:30;102249.40;;;-2.60
70831;BMP180;58451;51.550;7.208;2023-02-28T00:47:02;102247.40;;;-2.60
70831;BMP180;58451;51.550;7.208;2023-02-28T00:48:35;102249.40;;;-2.68
70831;BMP180;58451;51.550;7.208;2023-02-28T00:50:09;102244.80;;;-2.70
70831;BMP180;58451;51.550;7.208;2023-02-28T00:51:41;102248.60;;;-2.66
70831;BMP180;58451;51.550;7.208;2023-02-28T00:53:13;102249.00;;;-2.62
70831;BMP180;58451;51.550;7.208;2023-02-28T00:54:45;102251.20;;;-2.66
70831;BMP180;58451;51.550;7.208;2023-02-28T00:56:18;102253.80;;;-2.60
70831;BMP180;58451;51.550;7.208;2023-02-28T00:57:51;102248.40;;;-2.62
70831;BMP180;58451;51.550;7.208;2023-02-28T00:59:23;102252.00;;;-2.60
70831;BMP180;58451;51.550;7.208;2023-02-28T01:00:55;102257.00;;;-2.60
70831;BMP180;58451;51.550;7.208;2023-02-28T01:02:27;102256.40;;;-2.60
70831;BMP180;58451;51.550;7.208;2023-02-28T01:03:59;102260.60;;;-2.60
70831;BMP180;58451;51.550;7.208;2023-02-28T01:05:31;102259.20;;;-2.60
70831;BMP180;58451;51.550;7.208;2023-02-28T01:07:03;102258.80;;;-2.60
70831;BMP180;58451;51.550;7.208;2023-02-28T01:08:35;102259.80;;;-2.60
70831;BMP180;58451;51.550;7.208;2023-02-28T01:10:08;102256.20;;;-2.62
70831;BMP180;58451;51.550;7.208;2023-02-28T01:11:42;102260.80;;;-2.70
70831;BMP180;58451;51.550;7.208;2023-02-28T01:13:16;102257.40;;;-2.70
70831;BMP180;58451;51.550;7.208;2023-02-28T01:14:48;102257.00;;;-2.70
70831;BMP180;58451;51.550;7.208;2023-02-28T01:16:20;102255.60;;;-2.70
70831;BMP180;58451;51.550;7.208;2023-02-28T01:17:56;102252.80;;;-2.70
70831;BMP180;58451;51.550;7.208;2023-02-28T01:19:28;102257.40;;;-2.70
70831;BMP180;58451;51.550;7.208;2023-02-28T01:21:06;102251.20;;;-2.70
70831;BMP180;58451;51.550;7.208;2023-02-28T01:22:38;102252.60;;;-2.70
70831;BMP180;58451;51.550;7.208;2023-02-28T01:24:12;102245.80;;;-2.72
70831;BMP180;58451;51.550;7.208;2023-02-28T01:25:44;102247.60;;;-2.70
70831;BMP180;58451;51.550;7.208;2023-02-28T01:27:16;102249.20;;;-2.70
70831;BMP180;58451;51.550;7.208;2023-02-28T01:28:51;102251.40;;;-2.76
70831;BMP180;58451;51.550;7.208;2023-02-28T01:30:23;102252.20;;;-2.80
70831;BMP180;58451;51.550;7.208;2023-02-28T01:31:55;102249.60;;;-2.80
70831;BMP180;58451;51.550;7.208;2023-02-28T01:33:29;102249.80;;;-2.80
70831;BMP180;58451;51.550;7.208;2023-02-28T01:35:01;102254.40;;;-2.80
70831;BMP180;58451;51.550;7.208;2023-02-28T01:36:33;102251.20;;;-2.80
70831;BMP180;58451;51.550;7.208;2023-02-28T01:38:05;102249.40;;;-2.84
70831;BMP180;58451;51.550;7.208;2023-02-28T01:39:52;102245.00;;;-2.90
70831;BMP180;58451;51.550;7.208;2023-02-28T01:41:30;102244.00;;;-2.90
70831;BMP180;58451;51.550;7.208;2023-02-28T01:43:23;102236.20;;;-2.90
70831;BMP180;58451;51.550;7.208;2023-02-28T01:45:23;102238.40;;;-2.90
70831;BMP180;58451;51.550;7.208;2023-02-28T01:46:57;102240.80;;;-3.00
70831;BMP180;58451;51.550;7.208;2023-02-28T01:48:37;102234.80;;;-3.00
70831;BMP180;58451;51.550;7.208;2023-02-28T01:50:18;102237.60;;;-3.04
70831;BMP180;58451;51.550;7.208;2023-02-28T01:51:54;102235.60;;;-3.10
70831;BMP180;58451;51.550;7.208;2023-02-28T01:53:36;102235.60;;;-3.10
70831;BMP180;58451;51.550;7.208;2023-02-28T01:55:10;102230.80;;;-3.20
70831;BMP180;58451;51.550;7.208;2023-02-28T01:57:08;102226.40;;;-3.20
70831;BMP180;58451;51.550;7.208;2023-02-28T01:58:41;102232.40;;;-3.22
70831;BMP180;58451;51.550;7.208;2023-02-28T02:00:20;102227.80;;;-3.30
70831;BMP180;58451;51.550;7.208;2023-02-28T02:01:54;102230.40;;;-3.30
70831;BMP180;58451;51.550;7.208;2023-02-28T02:03:26;102226.60;;;-3.30
70831;BMP180;58451;51.550;7.208;2023-02-28T02:05:16;102226.60;;;-3.30
70831;BMP180;58451;51.550;7.208;2023-02-28T02:06:49;102225.40;;;-3.40
70831;BMP180;58451;51.550;7.208;2023-02-28T02:08:25;102230.40;;;-3.40
70831;BMP180;58451;51.550;7.208;2023-02-28T02:10:06;102220.20;;;-3.40
70831;BMP180;58451;51.550;7.208;2023-02-28T02:11:44;102217.20;;;-3.40
70831;BMP180;58451;51.550;7.208;2023-02-28T02:13:42;102212.40;;;-3.50
70831;BMP180;58451;51.550;7.208;2023-02-28T02:15:30;102211.80;;;-3.50
70831;BMP180;58451;51.550;7.208;2023-02-28T02:17:33;102211.60;;;-3.50
70831;BMP180;58451;51.550;7.208;2023-02-28T02:20:00;102214.40;;;-3.60
70831;BMP180;58451;51.550;7.208;2023-02-28T02:28:57;102205.00;;;-3.78
70831;BMP180;58451;51.550;7.208;2023-02-28T02:34:56;102209.80;;;-3.80
70831;BMP180;58451;51.550;7.208;2023-02-28T02:36:42;102211.20;;;-3.80
70831;BMP180;58451;51.550;7.208;2023-02-28T02:40:25;102209.20;;;-3.90
70831;BMP180;58451;51.550;7.208;2023-02-28T02:42:03;102217.00;;;-3.90
70831;BMP180;58451;51.550;7.208;2023-02-28T02:43:52;102213.20;;;-3.90
70831;BMP180;58451;51.550;7.208;2023-02-28T02:45:49;102214.80;;;-3.90
70831;BMP180;58451;51.550;7.208;2023-02-28T02:47:26;102218.80;;;-3.90
70831;BMP180;58451;51.550;7.208;2023-02-28T02:49:15;102212.00;;;-3.90
70831;BMP180;58451;51.550;7.208;2023-02-28T02:50:55;102212.80;;;-3.90
70831;BMP180;58451;51.550;7.208;2023-02-28T02:52:37;102220.80;;;-3.90
70831;BMP180;58451;51.550;7.208;2023-02-28T02:54:36;102216.40;;;-3.90
70831;BMP180;58451;51.550;7.208;2023-02-28T02:56:10;102215.80;;;-3.90
70831;BMP180;58451;51.550;7.208;2023-02-28T02:57:54;102215.60;;;-3.90
70831;BMP180;58451;51.550;7.208;2023-02-28T02:59:29;102217.00;;;-4.00
70831;BMP180;58451;51.550;7.208;2023-02-28T03:01:04;102214.80;;;-4.00
70831;BMP180;58451;51.550;7.208;2023-02-28T03:02:38;102218.60;;;-4.00
70831;BMP180;58451;51.550;7.208;2023-02-28T03:04:18;102212.20;;;-4.00
70831;BMP180;58451;51.550;7.208;2023-02-28T03:05:51;102213.60;;;-4.00
70831;BMP180;58451;51.550;7.208;2023-02-28T03:07:23;102219.00;;;-4.00
70831;BMP180;58451;51.550;7.208;2023-02-28T03:08:54;102219.20;;;-4.00
70831;BMP180;58451;51.550;7.208;2023-02-28T03:10:48;102211.80;;;-4.00
70831;BMP180;58451;51.550;7.208;2023-02-28T03:12:33;102219.80;;;-4.04
70831;BMP180;58451;51.550;7.208;2023-02-28T03:14:45;102211.60;;;-4.10
70831;BMP180;58451;51.550;7.208;2023-02-28T03:16:32;102211.00;;;-4.10
70831;BMP180;58451;51.550;7.208;2023-02-28T03:18:32;102209.40;;;-4.10
70831;BMP180;58451;51.550;7.208;2023-02-28T03:24:03;102206.20;;;-4.20
70831;BMP180;58451;51.550;7.208;2023-02-28T03:27:41;102201.80;;;-4.20
70831;BMP180;58451;51.550;7.208;2023-02-28T03:29:37;102212.80;;;-4.20
70831;BMP180;58451;51.550;7.208;2023-02-28T03:31:26;102207.00;;;-4.20
70831;BMP180;58451;51.550;7.208;2023-02-28T03:35:14;102205.60;;;-4.30
70831;BMP180;58451;51.550;7.208;2023-02-28T03:36:59;102205.60;;;-4.30
70831;BMP180;58451;51.550;7.208;2023-02-28T03:40:25;102207.40;;;-4.30
70831;BMP180;58451;51.550;7.208;2023-02-28T03:42:06;102204.60;;;-4.30
70831;BMP180;58451;51.550;7.208;2023-02-28T03:43:46;102206.00;;;-4.38
70831;BMP180;58451;51.550;7.208;2023-02-28T03:45:25;102208.00;;;-4.40
70831;BMP180;58451;51.550;7.208;2023-02-28T03:47:07;102210.40;;;-4.40
70831;BMP180;58451;51.550;7.208;2023-02-28T03:49:09;102214.40;;;-4.40
70831;BMP180;58451;51.550;7.208;2023-02-28T03:50:47;102220.40;;;-4.40
70831;BMP180;58451;51.550;7.208;2023-02-28T03:52:28;102214.00;;;-4.42
70831;BMP180;58451;51.550;7.208;2023-02-28T03:54:11;102222.20;;;-4.46
70831;BMP180;58451;51.550;7.208;2023-02-28T03:55:49;102220.20;;;-4.50
70831;BMP180;58451;51.550;7.208;2023-02-28T03:57:47;102223.60;;;-4.50
70831;BMP180;58451;51.550;7.208;2023-02-28T04:00:10;102215.60;;;-4.50
70831;BMP180;58451;51.550;7.208;2023-02-28T04:01:43;102215.20;;;-4.50
70831;BMP180;58451;51.550;7.208;2023-02-28T04:03:15;102214.60;;;-4.50
70831;BMP180;58451;51.550;7.208;2023-02-28T04:04:47;102210.40;;;-4.50
70831;BMP180;58451;51.550;7.208;2023-02-28T04:06:22;102212.40;;;-4.50
70831;BMP180;58451;51.550;7.208;2023-02-28T04:08:05;102213.00;;;-4.52
70831;BMP180;58451;51.550;7.208;2023-02-28T04:09:38;102218.00;;;-4.50
70831;BMP180;58451;51.550;7.208;2023-02-28T04:11:20;102214.00;;;-4.50
70831;BMP180;58451;51.550;7.208;2023-02-28T04:12:52;102213.00;;;-4.50
70831;BMP180;58451;51.550;7.208;2023-02-28T04:14:25;102221.60;;;-4.50
70831;BMP180;58451;51.550;7.208;2023-02-28T04:15:57;102217.00;;;-4.50
70831;BMP180;58451;51.550;7.208;2023-02-28T04:17:29;102219.00;;;-4.50
70831;BMP180;58451;51.550;7.208;2023-02-28T04:19:03;102218.00;;;-4.50
70831;BMP180;58451;51.550;7.208;2023-02-28T04:20:36;102216.40;;;-4.50
70831;BMP180;58451;51.550;7.208;2023-02-28T04:22:10;102224.00;;;-4.50
70831;BMP180;58451;51.550;7.208;2023-02-28T04:23:42;102218.20;;;-4.58
70831;BMP180;58451;51.550;7.208;2023-02-28T04:25:14;102221.00;;;-4.60
70831;BMP180;58451;51.550;7.208;2023-02-28T04:26:50;102218.60;;;-4.60
70831;BMP180;58451;51.550;7.208;2023-02-28T04:28:22;102223.20;;;-4.60
70831;BMP180;58451;51.550;7.208;2023-02-28T04:29:54;102216.80;;;-4.60
70831;BMP180;58451;51.550;7.208;2023-02-28T04:31:26;102221.80;;;-4.60
70831;BMP180;58451;51.550;7.208;2023-02-28T04:33:00;102218.40;;;-4.60
70831;BMP180;58451;51.550;7.208;2023-02-28T04:34:32;102222.80;;;-4.60
70831;BMP180;58451;51.550;7.208;2023-02-28T04:36:07;102225.60;;;-4.60
70831;BMP180;58451;51.550;7.208;2023-02-28T04:37:40;102225.00;;;-4.60
70831;BMP180;58451;51.550;7.208;2023-02-28T04:39:12;102227.40;;;-4.60
70831;BMP180;58451;51.550;7.208;2023-02-28T04:40:44;102231.80;;;-4.60
70831;BMP180;58451;51.550;7.208;2023-02-28T04:42:15;102224.20;;;-4.60
70831;BMP180;58451;51.550;7.208;2023-02-28T04:43:47;102227.00;;;-4.60
70831;BMP180;58451;51.550;7.208;2023-02-28T04:45:19;102227.80;;;-4.60
70831;BMP180;58451;51.550;7.208;2023-02-28T04:46:50;102228.20;;;-4.60
70831;BMP180;58451;51.550;7.208;2023-02-28T04:48:29;102229.20;;;-4.60
70831;BMP180;58451;51.550;7.208;2023-02-28T04:50:01;102226.20;;;-4.60
70831;BMP180;58451;51.550;7.208;2023-02-28T04:51:33;102230.20;;;-4.60
70831;BMP180;58451;51.550;7.208;2023-02-28T04:53:05;102228.60;;;-4.60
70831;BMP180;58451;51.550;7.208;2023-02-28T04:54:36;102226.40;;;-4.60
70831;BMP180;58451;51.550;7.208;2023-02-28T04:56:14;102228.20;;;-4.62
70831;BMP180;58451;51.550;7.208;2023-02-28T04:57:47;102227.20;;;-4.60
70831;BMP180;58451;51.550;7.208;2023-02-28T04:59:19;102229.00;;;-4.62
70831;BMP180;58451;51.550;7.208;2023-02-28T05:00:53;102227.60;;;-4.70
70831;BMP180;58451;51.550;7.208;2023-02-28T05:02:25;102224.00;;;-4.62
70831;BMP180;58451;51.550;7.208;2023-02-28T05:04:00;102226.20;;;-4.70
70831;BMP180;58451;51.550;7.208;2023-02-28T05:05:33;102226.60;;;-4.70
70831;BMP180;58451;51.550;7.208;2023-02-28T05:07:04;102230.60;;;-4.70
70831;BMP180;58451;51.550;7.208;2023-02-28T05:08:36;102228.60;;;-4.70
70831;BMP180;58451;51.550;7.208;2023-02-28T05:10:11;102232.20;;;-4.70
70831;BMP180;58451;51.550;7.208;2023-02-28T05:11:43;102233.60;;;-4.70
70831;BMP180;58451;51.550;7.208;2023-02-28T05:13:14;102235.80;;;-4.70
70831;BMP180;58451;51.550;7.208;2023-02-28T05:14:46;102237.00;;;-4.70
70831;BMP180;58451;51.550;7.208;2023-02-28T05:16:19;102235.00;;;-4.70
70831;BMP180;58451;51.550;7.208;2023-02-28T05:17:51;102238.20;;;-4.70
70831;BMP180;58451;51.550;7.208;2023-02-28T05:19:23;102229.20;;;-4.70
70831;BMP180;58451;51.550;7.208;2023-02-28T05:20:54;102234.00;;;-4.72
70831;BMP180;58451;51.550;7.208;2023-02-28T05:22:26;102243.00;;;-4.74
70831;BMP180;58451;51.550;7.208;2023-02-28T05:24:03;102240.20;;;-4.70
70831;BMP180;58451;51.550;7.208;2023-02-28T05:25:35;102248.20;;;-4.70
70831;BMP180;58451;51.550;7.208;2023-02-28T05:27:08;102242.80;;;-4.74
70831;BMP180;58451;51.550;7.208;2023-02-28T05:28:40;102246.00;;;-4.80
70831;BMP180;58451;51.550;7.208;2023-02-28T05:30:12;102246.60;;;-4.80
70831;BMP180;58451;51.550;7.208;2023-02-28T05:31:45;102239.40;;;-4.80
70831;BMP180;58451;51.550;7.208;2023-02-28T05:33:17;102245.80;;;-4.80
70831;BMP180;58451;51.550;7.208;2023-02-28T05:34:48;102245.40;;;-4.80
70831;BMP180;58451;51.550;7.208;2023-02-28T05:36:20;102247.00;;;-4.80
70831;BMP180;58451;51.550;7.208;2023-02-28T05:37:52;102248.20;;;-4.84
70831;BMP180;58451;51.550;7.208;2023-02-28T05:39:24;102251.40;;;-4.88
70831;BMP180;58451;51.550;7.208;2023-02-28T05:40:56;102250.60;;;-4.90
70831;BMP180;58451;51.550;7.208;2023-02-28T05:42:27;102247.40;;;-4.90
70831;BMP180;58451;51.550;7.208;2023-02-28T05:44:00;102250.00;;;-4.96
70831;BMP180;58451;51.550;7.208;2023-02-28T05:45:32;102250.40;;;-5.00
70831;BMP180;58451;51.550;7.208;2023-02-28T05:47:05;102252.80;;;-5.00
70831;BMP180;58451;51.550;7.208;2023-02-28T05:48:39;102257.40;;;-5.00
70831;BMP180;58451;51.550;7.208;2023-02-28T05:50:11;102253.20;;;-5.00
70831;BMP180;58451;51.550;7.208;2023-02-28T05:51:43;102258.00;;;-5.00
70831;BMP180;58451;51.550;7.208;2023-02-28T05:53:15;102259.00;;;-5.00
70831;BMP180;58451;51.550;7.208;2023-02-28T05:54:47;102259.60;;;-5.00
70831;BMP180;58451;51.550;7.208;2023-02-28T05:56:19;102257.00;;;-5.02
70831;BMP180;58451;51.550;7.208;2023-02-28T05:57:51;102262.00;;;-5.00
70831;BMP180;58451;51.550;7.208;2023-02-28T05:59:22;102268.20;;;-5.00
70831;BMP180;58451;51.550;7.208;2023-02-28T06:00:54;102261.60;;;-5.04
70831;BMP180;58451;51.550;7.208;2023-02-28T06:02:26;102261.60;;;-5.06
70831;BMP180;58451;51.550;7.208;2023-02-28T06:04:03;102262.40;;;-5.10
70831;BMP180;58451;51.550;7.208;2023-02-28T06:05:35;102263.20;;;-5.10
70831;BMP180;58451;51.550;7.208;2023-02-28T06:07:08;102263.20;;;-5.10
70831;BMP180;58451;51.550;7.208;2023-02-28T06:08:40;102270.20;;;-5.10
70831;BMP180;58451;51.550;7.208;2023-02-28T06:10:15;102268.80;;;-5.10
70831;BMP180;58451;51.550;7.208;2023-02-28T06:11:47;102273.00;;;-5.10
70831;BMP180;58451;51.550;7.208;2023-02-28T06:13:18;102267.60;;;-5.02
70831;BMP180;58451;51.550;7.208;2023-02-28T06:14:50;102271.80;;;-5.02
70831;BMP180;58451;51.550;7.208;2023-02-28T06:16:23;102264.60;;;-5.04
70831;BMP180;58451;51.550;7.208;2023-02-28T06:17:56;102273.80;;;-5.00
70831;BMP180;58451;51.550;7.208;2023-02-28T06:19:28;102277.00;;;-5.00
70831;BMP180;58451;51.550;7.208;2023-02-28T06:21:01;102276.60;;;-5.00
70831;BMP180;58451;51.550;7.208;2023-02-28T06:22:35;102277.40;;;-5.04
70831;BMP180;58451;51.550;7.208;2023-02-28T06:24:08;102282.80;;;-5.00
70831;BMP180;58451;51.550;7.208;2023-02-28T06:25:45;102281.80;;;-5.00
70831;BMP180;58451;51.550;7.208;2023-02-28T06:27:17;102286.20;;;-5.00
70831;BMP180;58451;51.550;7.208;2023-02-28T06:28:51;102285.40;;;-5.00
70831;BMP180;58451;51.550;7.208;2023-02-28T06:30:24;102286.20;;;-5.00
70831;BMP180;58451;51.550;7.208;2023-02-28T06:32:01;102287.20;;;-5.00
70831;BMP180;58451;51.550;7.208;2023-02-28T06:33:33;102286.20;;;-5.00
70831;BMP180;58451;51.550;7.208;2023-02-28T06:35:05;102286.40;;;-5.00
70831;BMP180;58451;51.550;7.208;2023-02-28T06:36:42;102284.00;;;-4.98
70831;BMP180;58451;51.550;7.208;2023-02-28T06:38:14;102289.00;;;-4.90
70831;BMP180;58451;51.550;7.208;2023-02-28T06:39:46;102286.00;;;-4.90
70831;BMP180;58451;51.550;7.208;2023-02-28T06:41:25;102286.00;;;-4.90
70831;BMP180;58451;51.550;7.208;2023-02-28T06:42:59;102288.00;;;-4.90
70831;BMP180;58451;51.550;7.208;2023-02-28T06:44:31;102282.80;;;-4.86
70831;BMP180;58451;51.550;7.208;2023-02-28T06:46:12;102281.40;;;-4.80
70831;BMP180;58451;51.550;7.208;2023-02-28T06:47:45;102287.00;;;-4.80
70831;BMP180;58451;51.550;7.208;2023-02-28T06:49:17;102282.20;;;-4.80
70831;BMP180;58451;51.550;7.208;2023-02-28T06:50:49;102284.80;;;-4.70
70831;BMP180;58451;51.550;7.208;2023-02-28T06:52:23;102284.40;;;-4.70
70831;BMP180;58451;51.550;7.208;2023-02-28T06:53:55;102284.20;;;-4.64
70831;BMP180;58451;51.550;7.208;2023-02-28T06:55:26;102288.80;;;-4.60
70831;BMP180;58451;51.550;7.208;2023-02-28T06:57:01;102288.40;;;-4.54
70831;BMP180;58451;51.550;7.208;2023-02-28T06:58:34;102288.40;;;-4.44
70831;BMP180;58451;51.550;7.208;2023-02-28T07:00:08;102287.60;;;-4.38
70831;BMP180;58451;51.550;7.208;2023-02-28T07:01:41;102291.00;;;-4.30
70831;BMP180;58451;51.550;7.208;2023-02-28T07:03:13;102293.80;;;-4.30
70831;BMP180;58451;51.550;7.208;2023-02-28T07:04:46;102289.80;;;-4.20
70831;BMP180;58451;51.550;7.208;2023-02-28T07:06:23;102292.80;;;-4.20
70831;BMP180;58451;51.550;7.208;2023-02-28T07:07:55;102292.20;;;-4.10
70831;BMP180;58451;51.550;7.208;2023-02-28T07:09:28;102291.20;;;-4.02
70831;BMP180;58451;51.550;7.208;2023-02-28T07:11:02;102291.00;;;-4.00
70831;BMP180;58451;51.550;7.208;2023-02-28T07:12:34;102291.00;;;-3.90
70831;BMP180;58451;51.550;7.208;2023-02-28T07:14:06;102292.80;;;-3.88
70831;BMP180;58451;51.550;7.208;2023-02-28T07:15:38;102289.20;;;-3.80
70831;BMP180;58451;51.550;7.208;2023-02-28T07:17:14;102292.60;;;-3.70
70831;BMP180;58451;51.550;7.208;2023-02-28T07:18:46;102288.40;;;-3.62
70831;BMP180;58451;51.550;7.208;2023-02-28T07:20:18;102292.20;;;-3.56
70831;BMP180;58451;51.550;7.208;2023-02-28T07:21:50;102263.80;;;-3.30
70831;BMP180;58451;51.550;7.208;2023-02-28T07:23:22;102271.20;;;-2.14
70831;BMP180;58451;51.550;7.208;2023-02-28T07:24:54;102283.80;;;-1.52
70831;BMP180;58451;51.550;7.208;2023-02-28T07:26:26;102287.00;;;-1.22
70831;BMP180;58451;51.550;7.208;2023-02-28T07:27:58;102284.00;;;-0.78
70831;BMP180;58451;51.550;7.208;2023-02-28T07:29:30;102288.80;;;-0.34
70831;BMP180;58451;51.550;7.208;2023-02-28T07:31:07;102294.60;;;0.00
70831;BMP180;58451;51.550;7.208;2023-02-28T07:32:39;102307.60;;;0.00
70831;BMP180;58451;51.550;7.208;2023-02-28T07:34:11;102316.20;;;-0.08
70831;BMP180;58451;51.550;7.208;2023-02-28T07:35:43;102310.80;;;-0.20
70831;BMP180;58451;51.550;7.208;2023-02-28T07:37:15;102314.60;;;-0.32
70831;BMP180;58451;51.550;7.208;2023-02-28T07:38:48;102314.20;;;-0.50
70831;BMP180;58451;51.550;7.208;2023-02-28T07:40:21;102316.20;;;-0.60
70831;BMP180;58451;51.550;7.208;2023-02-28T07:41:53;102315.80;;;-0.70
70831;BMP180;58451;51.550;7.208;2023-02-28T07:43:31;102317.00;;;-0.80
70831;BMP180;58451;51.550;7.208;2023-02-28T07:45:05;102315.40;;;-0.90
70831;BMP180;58451;51.550;7.208;2023-02-28T07:46:38;102317.60;;;-1.00
70831;BMP180;58451;51.550;7.208;2023-02-28T07:48:11;102311.60;;;-1.00
70831;BMP180;58451;51.550;7.208;2023-02-28T07:49:46;102314.60;;;-1.10
70831;BMP180;58451;51.550;7.208;2023-02-28T07:51:17;102317.40;;;-1.20
70831;BMP180;58451;51.550;7.208;2023-02-28T07:52:49;102318.20;;;-1.20
70831;BMP180;58451;51.550;7.208;2023-02-28T07:54:21;102312.60;;;-1.20
70831;BMP180;58451;51.550;7.208;2023-02-28T07:56:04;102324.00;;;-1.22
70831;BMP180;58451;51.550;7.208;2023-02-28T07:57:36;102323.80;;;-1.30
70831;BMP180;58451;51.550;7.208;2023-02-28T07:59:08;102324.60;;;-1.36
70831;BMP180;58451;51.550;7.208;2023-02-28T08:00:40;102328.40;;;-1.40
70831;BMP180;58451;51.550;7.208;2023-02-28T08:02:15;102327.80;;;-1.40
70831;BMP180;58451;51.550;7.208;2023-02-28T08:03:47;102327.40;;;-1.48
70831;BMP180;58451;51.550;7.208;2023-02-28T08:05:19;102324.40;;;-1.50
70831;BMP180;58451;51.550;7.208;2023-02-28T08:06:52;102328.20;;;-1.50
70831;BMP180;58451;51.550;7.208;2023-02-28T08:08:24;102328.40;;;-1.50
70831;BMP180;58451;51.550;7.208;2023-02-28T08:10:00;102329.40;;;-1.50
70831;BMP180;58451;51.550;7.208;2023-02-28T08:11:33;102326.60;;;-1.40
70831;BMP180;58451;51.550;7.208;2023-02-28T08:13:05;102325.40;;;-1.40
70831;BMP180;58451;51.550;7.208;2023-02-28T08:14:37;102324.80;;;-1.30
70831;BMP180;58451;51.550;7.208;2023-02-28T08:16:11;102327.00;;;-1.20
70831;BMP180;58451;51.550;7.208;2023-02-28T08:17:47;102327.00;;;-1.10
70831;BMP180;58451;51.550;7.208;2023-02-28T08:19:18;102325.40;;;-1.06
70831;BMP180;58451;51.550;7.208;2023-02-28T08:20:50;102324.60;;;-1.00
70831;BMP180;58451;51.550;7.208;2023-02-28T08:22:24;102329.00;;;-0.90
70831;BMP180;58451;51.550;7.208;2023-02-28T08:23:55;102327.80;;;-0.90
70831;BMP180;58451;51.550;7.208;2023-02-28T08:25:28;102325.00;;;-0.80
70831;BMP180;58451;51.550;7.208;2023-02-28T08:27:00;102323.40;;;-0.70
70831;BMP180;58451;51.550;7.208;2023-02-28T08:28:32;102326.80;;;-0.60
70831;BMP180;58451;51.550;7.208;2023-02-28T08:30:05;102326.60;;;-0.50
70831;BMP180;58451;51.550;7.208;2023-02-28T08:31:37;102324.80;;;-0.44
70831;BMP180;58451;51.550;7.208;2023-02-28T08:33:10;102325.60;;;-0.40
70831;BMP180;58451;51.550;7.208;2023-02-28T08:34:41;102328.60;;;-0.30
70831;BMP180;58451;51.550;7.208;2023-02-28T08:36:14;102321.80;;;-0.24
70831;BMP180;58451;51.550;7.208;2023-02-28T08:37:50;102322.40;;;-0.20
70831;BMP180;58451;51.550;7.208;2023-02-28T08:39:22;102323.80;;;-0.10
70831;BMP180;58451;51.550;7.208;2023-02-28T08:41:03;102321.00;;;-0.04
70831;BMP180;58451;51.550;7.208;2023-02-28T08:42:35;102322.80;;;0.00
70831;BMP180;58451;51.550;7.208;2023-02-28T08:44:07;102317.40;;;0.06
70831;BMP180;58451;51.550;7.208;2023-02-28T08:45:39;102320.00;;;0.10
70831;BMP180;58451;51.550;7.208;2023-02-28T08:47:11;102322.80;;;0.20
70831;BMP180;58451;51.550;7.208;2023-02-28T08:48:43;102317.80;;;0.30
70831;BMP180;58451;51.550;7.208;2023-02-28T08:50:15;102315.60;;;0.30
70831;BMP180;58451;51.550;7.208;2023-02-28T08:51:48;102320.20;;;0.40
70831;BMP180;58451;51.550;7.208;2023-02-28T08:53:19;102313.60;;;0.48
70831;BMP180;58451;51.550;7.208;2023-02-28T08:54:51;102317.60;;;0.52
70831;BMP180;58451;51.550;7.208;2023-02-28T08:56:23;102316.40;;;0.60
70831;BMP180;58451;51.550;7.208;2023-02-28T08:57:55;102317.40;;;0.70
70831;BMP180;58451;51.550;7.208;2023-02-28T08:59:27;102317.00;;;0.80
70831;BMP180;58451;51.550;7.208;2023-02-28T09:00:58;102319.40;;;0.90
70831;BMP180;58451;51.550;7.208;2023-02-28T09:02:31;102324.00;;;1.00
70831;BMP180;58451;51.550;7.208;2023-02-28T09:04:03;102320.60;;;1.02
70831;BMP180;58451;51.550;7.208;2023-02-28T09:05:35;102318.60;;;1.10
70831;BMP180;58451;51.550;7.208;2023-02-28T09:07:08;102320.40;;;1.20
70831;BMP180;58451;51.550;7.208;2023-02-28T09:08:41;102320.40;;;1.30
70831;BMP180;58451;51.550;7.208;2023-02-28T09:10:12;102321.80;;;1.34
70831;BMP180;58451;51.550;7.208;2023-02-28T09:11:44;102318.80;;;1.40
70831;BMP180;58451;51.550;7.208;2023-02-28T09:13:18;102315.00;;;1.40
70831;BMP180;58451;51.550;7.208;2023-02-28T09:14:51;102312.60;;;1.50
70831;BMP180;58451;51.550;7.208;2023-02-28T09:16:23;102322.20;;;1.58
70831;BMP180;58451;51.550;7.208;2023-02-28T09:17:56;102316.20;;;1.66
70831;BMP180;58451;51.550;7.208;2023-02-28T09:19:28;102318.40;;;1.80
70831;BMP180;58451;51.550;7.208;2023-02-28T09:21:06;102314.00;;;1.90
70831;BMP180;58451;51.550;7.208;2023-02-28T09:22:38;102309.60;;;1.90
70831;BMP180;58451;51.550;7.208;2023-02-28T09:24:10;102308.80;;;1.90